Time;durP1;ratioP1;P1;durP2;ratioP2;P2;SDS_P1;SDS_P2;PMS_P1;PMS_P2;Temp;Humidity;BMP_temperature;BMP_pressure;BME280_temperature;BME280_humidity;BME280_pressure;Samples;Min_cycle;Max_cycle;Signal;HPM_P1;HPM_P2
2022/03/15 00:01:48;;;;;;;101.40;49.50;;;;;;;4.70;43.25;100537.48;232969;1219;139438;-60
2022/03/15 00:06:50;;;;;;;105.00;51.10;;;;;;;4.63;43.16;100535.63;233158;1219;139090;-61
2022/03/15 00:11:54;;;;;;;111.60;53.50;;;;;;;4.56;43.64;100537.31;233119;1219;211151;-60
2022/03/15 00:16:57;;;;;;;115.00;55.90;;;;;;;4.48;43.79;100535.32;233262;1219;139204;-60
2022/03/15 00:22:04;;;;;;;112.00;55.80;;;;;;;4.42;43.77;100537.33;233180;1219;139365;-61
2022/03/15 00:27:07;;;;;;;121.80;56.30;;;;;;;4.32;44.26;100542.18;233171;1219;139799;-61
2022/03/15 00:32:11;;;;;;;124.50;59.20;;;;;;;4.24;44.27;100537.73;233102;1219;139277;-62
2022/03/15 00:37:16;;;;;;;130.50;61.20;;;;;;;4.21;44.22;100539.34;233139;1219;139459;-62
2022/03/15 00:42:19;;;;;;;123.80;58.00;;;;;;;4.19;44.44;100534.98;233164;1219;139334;-61
2022/03/15 00:47:22;;;;;;;132.60;58.60;;;;;;;4.10;44.42;100537.88;233083;1218;139058;-62
2022/03/15 00:52:25;;;;;;;134.50;63.90;;;;;;;4.01;44.77;100533.76;233336;1219;139212;-62
2022/03/15 00:57:28;;;;;;;132.70;60.80;;;;;;;3.97;44.89;100535.58;233293;1218;139271;-62
2022/03/15 01:02:31;;;;;;;129.00;59.50;;;;;;;3.88;44.87;100531.80;233306;1218;138754;-63
2022/03/15 01:07:35;;;;;;;118.70;56.30;;;;;;;3.78;45.05;100530.33;233239;1219;138993;-63
2022/03/15 01:12:38;;;;;;;122.00;58.30;;;;;;;3.73;45.01;100529.33;233216;1219;138560;-63
2022/03/15 01:17:41;;;;;;;123.80;58.20;;;;;;;3.65;45.53;100523.44;233169;1219;138874;-62
2022/03/15 01:22:44;;;;;;;119.70;57.60;;;;;;;3.61;45.53;100522.25;233299;1218;139042;-63
2022/03/15 01:27:49;;;;;;;116.40;57.20;;;;;;;3.58;45.86;100520.88;233290;1219;139612;-63
2022/03/15 01:32:52;;;;;;;115.30;55.00;;;;;;;3.53;45.76;100517.42;233285;1219;139150;-63
2022/03/15 01:37:55;;;;;;;113.00;54.00;;;;;;;3.50;45.74;100513.94;233328;1219;138810;-63
2022/03/15 01:42:58;;;;;;;110.90;53.60;;;;;;;3.48;45.82;100508.52;233297;1218;140081;-63
2022/03/15 01:48:03;;;;;;;123.00;54.40;;;;;;;3.40;46.08;100504.02;233324;1219;139031;-63
2022/03/15 01:53:06;;;;;;;111.90;53.20;;;;;;;3.36;46.07;100500.03;233285;1218;139223;-62
2022/03/15 01:58:13;;;;;;;106.00;52.10;;;;;;;3.34;46.17;100498.13;233263;1219;139221;-64
2022/03/15 02:03:17;;;;;;;104.10;52.10;;;;;;;3.34;46.30;100492.34;233357;1220;140499;-61
2022/03/15 02:08:20;;;;;;;108.60;51.20;;;;;;;3.30;46.51;100497.63;233206;1219;139067;-61
2022/03/15 02:13:23;;;;;;;108.30;51.30;;;;;;;3.24;46.60;100497.69;233261;1219;139634;-60
2022/03/15 02:18:28;;;;;;;93.30;46.90;;;;;;;3.22;46.64;100493.31;233261;1219;138762;-58
2022/03/15 02:23:31;;;;;;;79.20;37.60;;;;;;;3.22;46.31;100497.88;233320;1218;139410;-62
2022/03/15 02:28:34;;;;;;;83.00;40.90;;;;;;;3.24;46.37;100500.84;233480;1220;138878;-64
2022/03/15 02:33:37;;;;;;;94.00;45.30;;;;;;;3.23;46.75;100500.86;233245;1219;139140;-64
2022/03/15 02:38:40;;;;;;;89.70;42.40;;;;;;;3.18;46.89;100506.84;233121;1219;138986;-64
2022/03/15 02:43:44;;;;;;;81.50;40.30;;;;;;;3.14;46.88;100513.38;233297;1219;138873;-64
2022/03/15 02:48:46;;;;;;;94.60;44.50;;;;;;;3.09;47.19;100511.84;233263;1219;139606;-62
2022/03/15 02:53:52;;;;;;;92.80;45.20;;;;;;;3.06;47.32;100518.34;233243;1218;139612;-64
2022/03/15 02:58:55;;;;;;;96.60;45.00;;;;;;;3.03;47.36;100520.29;233423;1218;140255;-63
2022/03/15 03:03:58;;;;;;;86.60;43.80;;;;;;;2.98;47.51;100527.34;232890;1219;138439;-61
2022/03/15 03:09:02;;;;;;;90.20;43.80;;;;;;;2.94;47.61;100525.27;233365;1219;139852;-63
2022/03/15 03:14:12;;;;;;;81.70;41.70;;;;;;;2.90;47.79;100521.09;233287;1218;141509;-63
2022/03/15 03:19:15;;;;;;;83.90;41.50;;;;;;;2.83;47.73;100526.21;233209;1220;140288;-63
2022/03/15 03:24:21;;;;;;;81.00;38.90;;;;;;;2.77;47.99;100526.25;233241;1220;140026;-62
2022/03/15 03:29:25;;;;;;;81.50;39.60;;;;;;;2.71;48.04;100529.10;233317;1219;138708;-63
2022/03/15 03:34:29;;;;;;;73.60;37.00;;;;;;;2.66;48.41;100532.63;233308;1218;138834;-64
2022/03/15 03:39:32;;;;;;;71.80;37.60;;;;;;;2.63;48.38;100531.08;233340;1219;139136;-63
2022/03/15 03:44:36;;;;;;;71.70;36.50;;;;;;;2.63;48.24;100530.03;233250;1219;138954;-62
2022/03/15 03:49:40;;;;;;;72.90;36.20;;;;;;;2.68;48.31;100525.08;233243;1218;139824;-60
2022/03/15 03:54:43;;;;;;;68.00;30.90;;;;;;;2.78;48.46;100514.52;233234;1219;139667;-63
2022/03/15 03:59:46;;;;;;;64.50;30.70;;;;;;;3.01;47.72;100502.59;233339;1219;138824;-63
2022/03/15 04:04:51;;;;;;;64.10;29.40;;;;;;;3.30;47.14;100492.20;233451;1219;138797;-64
2022/03/15 04:09:55;;;;;;;58.40;28.00;;;;;;;3.45;46.64;100490.48;233252;1219;140026;-62
2022/03/15 04:14:58;;;;;;;48.00;25.10;;;;;;;3.53;46.25;100494.60;233250;1220;138997;-64
2022/03/15 04:20:03;;;;;;;60.90;29.50;;;;;;;3.74;45.97;100501.77;233105;1219;140567;-63
2022/03/15 04:25:07;;;;;;;60.60;30.10;;;;;;;3.82;45.63;100507.11;233296;1219;138792;-62
2022/03/15 04:30:10;;;;;;;62.00;30.00;;;;;;;3.72;45.99;100510.55;233330;1219;139144;-64
2022/03/15 04:35:13;;;;;;;63.60;30.50;;;;;;;3.74;45.73;100515.98;233258;1219;140850;-64
2022/03/15 04:40:17;;;;;;;67.80;36.50;;;;;;;3.93;45.58;100518.23;233192;1220;140236;-63
2022/03/15 04:45:21;;;;;;;72.70;33.20;;;;;;;4.19;45.52;100516.16;233237;1218;139403;-62
2022/03/15 04:50:24;;;;;;;63.60;31.70;;;;;;;4.26;44.75;100508.53;233297;1220;138781;-63
2022/03/15 04:55:27;;;;;;;70.30;33.70;;;;;;;4.30;44.41;100508.48;233220;1219;140462;-63
2022/03/15 05:00:31;;;;;;;217.90;131.60;;;;;;;4.27;44.22;100515.38;233091;1219;138933;-63
2022/03/15 05:05:37;;;;;;;59.60;30.70;;;;;;;4.44;44.56;100516.90;233174;1219;139810;-63
2022/03/15 05:16:02;;;;;;;57.00;27.10;;;;;;;4.71;43.50;100506.35;233036;1221;138936;-65
2022/03/15 05:21:06;;;;;;;52.00;26.40;;;;;;;4.71;43.18;100505.99;233251;1219;139399;-64
2022/03/15 05:26:10;;;;;;;54.50;26.60;;;;;;;4.64;43.22;100507.68;233209;1219;139073;-64
2022/03/15 05:31:13;;;;;;;53.40;26.90;;;;;;;4.60;43.15;100510.02;233185;1220;141980;-63
2022/03/15 05:36:18;;;;;;;53.40;27.80;;;;;;;4.59;43.13;100511.45;233227;1219;138943;-62
2022/03/15 05:41:22;;;;;;;55.50;27.30;;;;;;;4.54;43.22;100514.50;233245;1218;139528;-64
2022/03/15 05:46:29;;;;;;;75.00;33.80;;;;;;;4.52;43.27;100517.16;233431;1218;139196;-63
2022/03/15 05:51:33;;;;;;;74.90;36.00;;;;;;;4.39;43.78;100516.63;233275;1219;140779;-63
2022/03/15 05:56:39;;;;;;;58.20;28.70;;;;;;;4.27;44.32;100512.05;233286;1220;138801;-62
2022/03/15 06:01:42;;;;;;;53.90;26.60;;;;;;;4.28;44.15;100513.42;233227;1218;139079;-62
2022/03/15 06:06:45;;;;;;;54.10;26.80;;;;;;;4.45;44.13;100515.13;233204;1218;139339;-63
2022/03/15 06:11:48;;;;;;;71.30;31.70;;;;;;;4.61;43.93;100511.59;233257;1219;139167;-62
2022/03/15 06:16:51;;;;;;;71.20;34.30;;;;;;;4.65;44.56;100522.61;233379;1219;139846;-59
2022/03/15 06:21:54;;;;;;;75.90;36.60;;;;;;;4.60;44.74;100531.11;233137;1219;139345;-60
2022/03/15 06:26:58;;;;;;;80.40;36.80;;;;;;;4.57;45.00;100530.28;233136;1219;139194;-61
2022/03/15 06:32:02;;;;;;;79.50;38.90;;;;;;;4.56;45.41;100524.67;233242;1220;138741;-62
2022/03/15 06:37:28;;;;;;;76.40;37.60;;;;;;;4.57;45.90;100527.98;233221;1220;138960;-63
2022/03/15 06:42:32;;;;;;;80.60;36.60;;;;;;;4.63;45.85;100525.80;233191;1219;138637;-61
2022/03/15 06:47:36;;;;;;;72.10;34.80;;;;;;;4.72;46.28;100522.69;233183;1219;139872;-63
2022/03/15 06:52:40;;;;;;;56.60;28.30;;;;;;;4.89;46.38;100524.90;233360;1219;141703;-63
2022/03/15 06:57:43;;;;;;;49.90;25.00;;;;;;;5.13;45.65;100521.54;233327;1220;139680;-64
2022/03/15 07:02:51;;;;;;;51.90;25.00;;;;;;;5.37;45.18;100521.84;233392;1219;139850;-63
2022/03/15 07:07:54;;;;;;;49.50;23.50;;;;;;;5.60;44.57;100523.04;233310;1219;139192;-63
2022/03/15 07:12:57;;;;;;;46.50;21.80;;;;;;;5.78;44.13;100517.77;233047;1219;138703;-62
2022/03/15 07:18:00;;;;;;;42.60;21.30;;;;;;;5.99;43.75;100521.79;233266;1220;139431;-62
2022/03/15 07:23:03;;;;;;;41.40;21.40;;;;;;;6.22;43.56;100519.41;233407;1219;139232;-62
2022/03/15 07:28:06;;;;;;;44.40;20.80;;;;;;;6.44;43.40;100523.72;233281;1219;139348;-62
2022/03/15 07:33:09;;;;;;;34.00;18.70;;;;;;;6.71;43.16;100519.96;233267;1219;140983;-63
2022/03/15 07:38:17;;;;;;;36.30;19.80;;;;;;;6.97;42.72;100519.19;233223;1218;139198;-63
2022/03/15 07:43:23;;;;;;;35.50;19.80;;;;;;;7.22;42.52;100508.86;233288;1219;139116;-62
2022/03/15 07:48:26;;;;;;;42.40;21.20;;;;;;;7.48;42.14;100500.29;233275;1218;138766;-64
2022/03/15 07:53:32;;;;;;;45.60;22.50;;;;;;;7.68;41.80;100506.98;233154;1219;139729;-64
2022/03/15 07:58:35;;;;;;;44.80;22.90;;;;;;;7.83;41.52;100501.45;233431;1219;138847;-62
2022/03/15 08:03:39;;;;;;;44.70;23.00;;;;;;;7.98;41.32;100503.34;233329;1220;138911;-64
2022/03/15 08:08:42;;;;;;;39.50;20.60;;;;;;;8.12;41.07;100502.79;233388;1215;140143;-64
2022/03/15 08:13:45;;;;;;;43.00;20.60;;;;;;;8.27;40.64;100500.39;233032;1217;138516;-63
2022/03/15 08:18:52;;;;;;;38.70;19.00;;;;;;;8.42;40.24;100492.56;233247;1220;139171;-61
2022/03/15 08:23:55;;;;;;;39.10;19.80;;;;;;;8.62;40.05;100485.77;233120;1219;138887;-63
2022/03/15 08:28:59;;;;;;;39.50;18.70;;;;;;;8.84;39.98;100485.26;233350;1219;138893;-63
2022/03/15 08:34:02;;;;;;;40.80;18.80;;;;;;;9.01;39.65;100476.94;233251;1219;138874;-63
2022/03/15 08:39:05;;;;;;;29.40;17.20;;;;;;;9.21;39.58;100475.19;233103;1219;139100;-63
2022/03/15 08:44:08;;;;;;;31.60;15.60;;;;;;;9.43;39.45;100470.22;233307;1219;139991;-62
2022/03/15 08:49:11;;;;;;;28.10;15.90;;;;;;;9.64;38.98;100464.69;233252;1219;139975;-63
2022/03/15 08:54:15;;;;;;;27.80;15.70;;;;;;;9.85;38.69;100463.77;233215;1219;139708;-61
2022/03/15 08:59:20;;;;;;;30.60;15.30;;;;;;;10.07;38.46;100455.89;233341;1219;141007;-63
2022/03/15 09:04:25;;;;;;;24.80;14.00;;;;;;;10.28;38.51;100443.94;233249;1219;139109;-64
2022/03/15 09:09:28;;;;;;;25.00;14.10;;;;;;;10.46;37.86;100436.52;233140;1219;140663;-64
2022/03/15 09:14:32;;;;;;;24.10;14.20;;;;;;;10.61;37.91;100433.25;233273;1220;139972;-63
2022/03/15 09:19:35;;;;;;;28.30;14.00;;;;;;;10.76;37.43;100425.91;233196;1219;139632;-63
2022/03/15 09:24:38;;;;;;;26.20;13.90;;;;;;;10.94;37.48;100418.95;233168;1220;139433;-62
2022/03/15 09:29:41;;;;;;;22.60;13.60;;;;;;;11.09;37.44;100407.30;233245;1219;140071;-63
2022/03/15 09:34:44;;;;;;;24.00;13.50;;;;;;;11.24;37.26;100404.00;233376;1219;140026;-63
2022/03/15 09:39:52;;;;;;;22.30;14.10;;;;;;;11.40;36.89;100405.28;233297;1219;139437;-62
2022/03/15 09:44:59;;;;;;;24.00;14.00;;;;;;;11.58;37.22;100403.80;233288;1219;139676;-64
2022/03/15 09:50:06;;;;;;;21.20;13.50;;;;;;;11.73;36.78;100390.67;233206;1219;141308;-64
2022/03/15 09:55:11;;;;;;;19.80;12.30;;;;;;;11.87;36.77;100382.41;233241;1219;139145;-63
2022/03/15 10:00:16;;;;;;;22.40;13.60;;;;;;;11.99;36.32;100376.52;233280;1219;140695;-62
2022/03/15 10:05:19;;;;;;;18.70;12.10;;;;;;;12.17;36.25;100365.90;233521;1219;139616;-63
2022/03/15 10:10:23;;;;;;;20.90;11.40;;;;;;;12.32;36.09;100350.40;233237;1219;139630;-64
2022/03/15 10:15:26;;;;;;;27.10;13.00;;;;;;;12.51;35.91;100346.85;233233;1220;141883;-63
2022/03/15 10:20:39;;;;;;;25.20;13.00;;;;;;;12.69;36.25;100334.15;233260;1219;139221;-64
2022/03/15 10:25:49;;;;;;;20.20;13.30;;;;;;;12.88;36.14;100329.46;233193;1219;140161;-63
2022/03/15 10:30:53;;;;;;;17.10;11.00;;;;;;;13.07;35.82;100323.73;233299;1220;141790;-63
2022/03/15 10:35:56;;;;;;;19.50;10.10;;;;;;;13.29;35.72;100320.26;233266;1220;139640;-63
2022/03/15 10:41:01;;;;;;;19.10;10.90;;;;;;;13.54;35.70;100309.88;233389;1219;139794;-63
2022/03/15 10:46:04;;;;;;;19.10;11.70;;;;;;;13.77;35.56;100301.83;233245;1219;140768;-63
2022/03/15 10:51:14;;;;;;;19.60;12.00;;;;;;;13.99;35.22;100286.70;233293;1219;139671;-63
2022/03/15 10:56:22;;;;;;;216.20;136.00;;;;;;;14.21;35.11;100285.64;233209;1219;139906;-62
2022/03/15 11:01:26;;;;;;;24.40;14.30;;;;;;;14.37;35.06;100273.44;233018;1219;140918;-62
2022/03/15 11:06:44;;;;;;;19.50;12.50;;;;;;;14.60;35.03;100277.52;233159;1219;139905;-63
2022/03/15 11:12:06;;;;;;;19.40;12.20;;;;;;;14.71;34.89;100263.63;233062;1218;140377;-62
2022/03/15 11:17:20;;;;;;;19.60;12.80;;;;;;;14.83;34.73;100261.14;233285;1219;139536;-62
2022/03/15 11:22:34;;;;;;;16.40;10.70;;;;;;;14.85;34.57;100246.69;233138;1219;143308;-62
2022/03/15 11:27:42;;;;;;;23.80;11.20;;;;;;;14.93;34.67;100241.60;233098;1219;139731;-62
2022/03/15 11:32:46;;;;;;;14.90;10.10;;;;;;;14.91;34.49;100232.23;233203;1219;139440;-63
2022/03/15 11:37:53;;;;;;;16.50;9.70;;;;;;;14.94;34.66;100222.43;233185;1219;139777;-61
2022/03/15 11:43:14;;;;;;;160.20;111.90;;;;;;;15.01;34.68;100219.52;233063;1219;139940;-62
2022/03/15 11:48:23;;;;;;;19.00;12.70;;;;;;;15.07;34.88;100203.17;233178;1219;139977;-62
2022/03/15 11:53:46;;;;;;;16.60;9.50;;;;;;;15.23;34.65;100194.17;233201;1218;139954;-63
2022/03/15 11:58:54;;;;;;;16.00;9.10;;;;;;;15.42;34.63;100174.90;233197;1219;139469;-62
2022/03/15 12:03:59;;;;;;;14.30;9.00;;;;;;;15.66;34.70;100161.37;233141;1219;139179;-62
2022/03/15 12:09:11;;;;;;;13.30;9.20;;;;;;;15.94;34.51;100149.39;233186;1218;140308;-63
2022/03/15 12:14:19;;;;;;;17.10;9.70;;;;;;;16.23;34.13;100140.38;233236;1219;139557;-62
2022/03/15 12:19:35;;;;;;;13.70;9.50;;;;;;;16.40;33.72;100128.88;233237;1219;140528;-63
2022/03/15 12:24:45;;;;;;;13.80;9.20;;;;;;;16.52;33.38;100125.71;233196;1219;140034;-62
2022/03/15 12:29:58;;;;;;;12.10;8.60;;;;;;;16.71;33.32;100118.50;233015;1219;159210;-63
2022/03/15 12:35:03;;;;;;;13.10;8.70;;;;;;;16.84;32.88;100116.89;233346;1219;141761;-62
2022/03/15 12:40:10;;;;;;;13.70;9.00;;;;;;;16.97;32.78;100110.18;233185;1220;139520;-61
2022/03/15 12:45:14;;;;;;;12.30;8.60;;;;;;;17.04;32.47;100093.20;233164;1219;139468;-62
2022/03/15 12:50:21;;;;;;;12.20;8.30;;;;;;;17.09;32.45;100080.63;233141;1219;139707;-62
2022/03/15 12:55:27;;;;;;;16.40;10.00;;;;;;;17.11;32.24;100074.05;233181;1219;139218;-61
2022/03/15 13:00:34;;;;;;;16.20;9.10;;;;;;;17.05;31.98;100073.96;233119;1219;139551;-64
2022/03/15 13:05:42;;;;;;;293.00;199.60;;;;;;;17.15;32.14;100066.41;233122;1218;139303;-63
2022/03/15 13:10:47;;;;;;;14.40;9.90;;;;;;;17.28;31.75;100053.67;233221;1219;139734;-63
2022/03/15 13:15:53;;;;;;;14.60;9.30;;;;;;;17.38;31.93;100046.09;233145;1219;141041;-63
2022/03/15 13:21:10;;;;;;;13.40;9.10;;;;;;;17.55;31.46;100046.40;233036;1219;139605;-62
2022/03/15 13:26:19;;;;;;;11.00;8.40;;;;;;;17.71;31.35;100039.48;233142;1218;139939;-64
2022/03/15 13:31:25;;;;;;;15.00;9.10;;;;;;;17.83;30.99;100032.69;233115;1219;139593;-64
2022/03/15 13:36:33;;;;;;;20.10;9.30;;;;;;;17.96;31.12;100027.52;232989;1219;140471;-63
2022/03/15 13:41:41;;;;;;;14.90;9.10;;;;;;;18.16;31.08;100023.08;233159;1219;139164;-63
2022/03/15 13:46:47;;;;;;;14.60;9.20;;;;;;;18.24;30.59;100020.38;233210;1218;139927;-63
2022/03/15 13:52:01;;;;;;;16.30;9.20;;;;;;;18.29;30.61;100009.04;233069;1219;139736;-63
2022/03/15 13:57:07;;;;;;;14.90;10.20;;;;;;;18.15;30.11;100012.74;233179;1219;139459;-63
2022/03/15 14:02:10;;;;;;;13.90;9.60;;;;;;;17.90;30.05;100010.95;233192;1219;139514;-62
2022/03/15 14:07:22;;;;;;;18.80;9.70;;;;;;;17.62;29.98;100000.12;233156;1219;142542;-63
2022/03/15 14:12:30;;;;;;;15.70;9.30;;;;;;;17.48;30.08;99997.44;233183;1218;139382;-63
2022/03/15 14:17:54;;;;;;;16.10;11.10;;;;;;;17.33;30.44;99987.08;233167;1219;139209;-64
2022/03/15 14:23:00;;;;;;;16.30;9.80;;;;;;;17.20;30.58;99990.34;233169;1219;139325;-64
2022/03/15 14:28:05;;;;;;;12.80;9.40;;;;;;;17.09;31.12;99983.84;233254;1218;139393;-64
2022/03/15 14:33:13;;;;;;;14.70;9.00;;;;;;;16.97;31.08;99981.83;233110;1219;139491;-63
2022/03/15 14:38:20;;;;;;;14.70;9.90;;;;;;;16.86;31.26;99977.98;233221;1219;139361;-63
2022/03/15 14:43:33;;;;;;;19.20;10.20;;;;;;;16.74;31.02;99969.69;233165;1219;138951;-62
2022/03/15 14:48:36;;;;;;;113.60;64.90;;;;;;;16.63;31.47;99967.27;233167;1218;139773;-62
2022/03/15 14:53:41;;;;;;;25.10;12.30;;;;;;;16.56;31.65;99955.76;233190;1219;139322;-62
2022/03/15 14:58:46;;;;;;;44.90;29.10;;;;;;;16.49;31.57;99952.02;233219;1218;139580;-62
2022/03/15 15:03:54;;;;;;;28.90;17.90;;;;;;;16.77;33.51;99940.83;233000;1219;138666;-64
2022/03/15 15:09:01;;;;;;;22.90;11.10;;;;;;;17.27;33.71;99938.92;233140;1220;139928;-62
2022/03/15 15:14:09;;;;;;;19.10;10.50;;;;;;;17.36;32.56;99932.13;233172;1217;139792;-61
2022/03/15 15:19:12;;;;;;;17.70;9.80;;;;;;;17.13;32.11;99921.32;233106;1219;139564;-62
2022/03/15 15:24:17;;;;;;;18.20;10.40;;;;;;;16.87;32.14;99921.84;233169;1220;139234;-63
2022/03/15 15:29:20;;;;;;;18.60;11.40;;;;;;;16.62;32.14;99922.70;233284;1217;139205;-63
2022/03/15 15:34:29;;;;;;;17.60;11.00;;;;;;;16.38;32.25;99915.54;233071;1219;139627;-62
2022/03/15 15:39:33;;;;;;;16.10;10.20;;;;;;;16.18;32.34;99911.52;233150;1219;139914;-62
2022/03/15 15:44:43;;;;;;;18.20;10.60;;;;;;;16.01;32.36;99915.44;233157;1219;140389;-61
2022/03/15 15:49:46;;;;;;;17.30;10.80;;;;;;;15.85;32.43;99901.58;233012;1220;140082;-62
2022/03/15 15:54:54;;;;;;;22.30;10.40;;;;;;;15.72;32.61;99900.11;233200;1218;139652;-62
2022/03/15 15:59:58;;;;;;;21.40;10.80;;;;;;;15.58;32.63;99899.48;233227;1219;139470;-63
2022/03/15 16:05:07;;;;;;;18.70;10.50;;;;;;;15.46;32.58;99898.31;233318;1219;139452;-64
2022/03/15 16:10:15;;;;;;;17.90;9.70;;;;;;;15.34;32.72;99890.55;233218;1220;139293;-63
2022/03/15 16:15:22;;;;;;;21.40;10.50;;;;;;;15.26;32.80;99895.41;233079;1219;139198;-61
2022/03/15 16:20:27;;;;;;;51.90;31.40;;;;;;;15.15;33.10;99884.17;233118;1220;139390;-63
2022/03/15 16:25:33;;;;;;;20.30;10.80;;;;;;;15.07;33.19;99884.47;233231;1219;141231;-63
2022/03/15 16:30:37;;;;;;;19.80;10.40;;;;;;;14.96;33.32;99881.33;233216;1220;140586;-62
2022/03/15 16:35:40;;;;;;;26.30;11.70;;;;;;;14.81;33.30;99872.27;233242;1219;143606;-63
2022/03/15 16:40:43;;;;;;;20.10;11.50;;;;;;;14.71;33.19;99877.44;233306;1218;210696;-60
2022/03/15 16:45:47;;;;;;;23.30;12.00;;;;;;;14.61;33.37;99872.41;233139;1219;139379;-62
2022/03/15 16:50:50;;;;;;;24.50;11.80;;;;;;;14.48;33.55;99864.30;233174;1218;139331;-62
2022/03/15 16:55:55;;;;;;;23.00;11.10;;;;;;;14.37;33.58;99863.16;233168;1220;139256;-61
2022/03/15 17:00:58;;;;;;;60.80;34.30;;;;;;;14.27;33.62;99860.08;233243;1217;139723;-62
2022/03/15 17:06:01;;;;;;;27.80;14.10;;;;;;;14.19;34.04;99861.31;233240;1218;138869;-59
2022/03/15 17:11:07;;;;;;;34.70;13.00;;;;;;;14.05;34.09;99858.63;233292;1220;139935;-62
2022/03/15 17:16:15;;;;;;;41.30;17.70;;;;;;;13.93;34.40;99860.79;233098;1219;139090;-61
2022/03/15 17:21:26;;;;;;;38.10;17.20;;;;;;;13.85;34.60;99861.65;233214;1219;139896;-61
2022/03/15 17:26:32;;;;;;;41.90;20.40;;;;;;;13.75;34.47;99861.73;233049;1220;139256;-61
2022/03/15 17:31:37;;;;;;;37.10;20.50;;;;;;;13.64;34.79;99865.08;233021;1219;139803;-62
2022/03/15 17:36:41;;;;;;;275.80;196.80;;;;;;;13.52;35.17;99854.80;233179;1219;139194;-60
2022/03/15 17:41:53;;;;;;;58.00;26.40;;;;;;;13.49;35.87;99848.00;233175;1219;140030;-63
2022/03/15 17:47:02;;;;;;;53.60;25.80;;;;;;;13.40;35.21;99837.14;233827;1218;138910;-63
2022/03/15 17:52:05;;;;;;;54.10;26.90;;;;;;;13.29;35.51;99821.96;233568;1219;141134;-61
2022/03/15 17:57:16;;;;;;;58.60;27.30;;;;;;;13.20;35.67;99815.70;233690;1219;139532;-62
2022/03/15 18:02:20;;;;;;;56.40;28.30;;;;;;;13.09;35.95;99814.41;233564;1219;138881;-63
2022/03/15 18:07:25;;;;;;;52.70;29.10;;;;;;;12.98;36.01;99819.45;233586;1219;138740;-63
2022/03/15 18:12:28;;;;;;;61.70;29.20;;;;;;;12.84;36.30;99806.59;233715;1218;139668;-63
2022/03/15 18:17:35;;;;;;;61.00;32.20;;;;;;;12.72;36.43;99802.13;233719;1219;139312;-63
2022/03/15 18:22:39;;;;;;;69.60;35.10;;;;;;;12.63;36.56;99800.04;233653;1219;139149;-63
2022/03/15 18:27:43;;;;;;;74.60;35.80;;;;;;;12.51;36.99;99793.75;233577;1219;139316;-62
2022/03/15 18:32:46;;;;;;;67.50;34.60;;;;;;;12.42;37.18;99788.97;233542;1219;139190;-63
2022/03/15 18:37:55;;;;;;;67.90;34.00;;;;;;;12.33;37.20;99785.92;233648;1217;138933;-62
2022/03/15 18:43:08;;;;;;;66.50;35.60;;;;;;;12.28;37.41;99774.08;233700;1219;139864;-61
2022/03/15 18:48:15;;;;;;;102.70;64.00;;;;;;;12.21;37.41;99760.46;233646;1219;139811;-63
2022/03/15 18:53:24;;;;;;;83.00;43.30;;;;;;;12.14;37.90;99762.82;233792;1219;139755;-63
2022/03/15 18:58:28;;;;;;;72.00;34.80;;;;;;;12.06;37.72;99760.73;233629;1219;138709;-62
2022/03/15 19:03:36;;;;;;;108.30;54.30;;;;;;;12.00;38.15;99758.26;233653;1219;139210;-65
2022/03/15 19:08:44;;;;;;;74.30;36.40;;;;;;;11.94;38.03;99736.39;233742;1219;139770;-63
2022/03/15 19:13:51;;;;;;;414.70;322.80;;;;;;;11.84;38.10;99730.67;233678;1218;138977;-64
2022/03/15 19:18:56;;;;;;;86.20;48.50;;;;;;;11.84;38.87;99725.55;233649;1219;139826;-63
2022/03/15 19:23:59;;;;;;;64.30;33.70;;;;;;;11.87;38.45;99718.63;233573;1219;139727;-62
2022/03/15 19:29:06;;;;;;;65.10;34.80;;;;;;;11.78;38.60;99706.84;233627;1219;139435;-62
2022/03/15 19:34:10;;;;;;;60.90;33.00;;;;;;;11.66;38.43;99704.81;233513;1219;139004;-62
2022/03/15 19:39:13;;;;;;;67.50;34.90;;;;;;;11.56;38.89;99705.21;233577;1219;139360;-62
2022/03/15 19:44:16;;;;;;;55.60;32.80;;;;;;;11.47;38.56;99705.72;233405;1219;139267;-61
2022/03/15 19:49:19;;;;;;;67.00;33.20;;;;;;;11.43;38.70;99689.95;233752;1218;138691;-62
2022/03/15 19:54:22;;;;;;;66.50;34.00;;;;;;;11.39;38.79;99677.89;233708;1219;139829;-63
2022/03/15 19:59:28;;;;;;;56.30;33.20;;;;;;;11.37;38.76;99655.80;233778;1219;139720;-63
2022/03/15 20:04:31;;;;;;;62.90;33.30;;;;;;;11.35;38.40;99641.89;233676;1220;138855;-61
2022/03/15 20:09:35;;;;;;;61.00;31.60;;;;;;;11.31;38.29;99626.46;233557;1219;139804;-63
2022/03/15 20:14:39;;;;;;;54.60;31.70;;;;;;;11.24;38.55;99625.05;233567;1218;138978;-61
2022/03/15 20:19:46;;;;;;;54.50;32.20;;;;;;;11.14;38.58;99625.45;233592;1218;139335;-60
2022/03/15 20:24:53;;;;;;;59.40;32.20;;;;;;;11.05;38.55;99612.09;233596;1219;139428;-62
2022/03/15 20:30:00;;;;;;;59.80;32.00;;;;;;;10.97;38.86;99601.34;233682;1219;138907;-60
2022/03/15 20:35:05;;;;;;;65.10;39.30;;;;;;;10.96;39.30;99592.21;233674;1219;138529;-62
2022/03/15 20:40:09;;;;;;;59.00;32.10;;;;;;;10.98;38.81;99579.09;233740;1219;139248;-61
2022/03/15 20:45:13;;;;;;;85.30;47.40;;;;;;;10.95;38.96;99582.63;233600;1219;139213;-60
2022/03/15 20:50:16;;;;;;;64.20;33.50;;;;;;;10.94;38.90;99579.34;233700;1218;139029;-61
2022/03/15 20:55:20;;;;;;;55.20;31.90;;;;;;;10.84;38.93;99575.62;233513;1218;139210;-61
2022/03/15 21:00:24;;;;;;;55.30;31.20;;;;;;;10.76;38.79;99576.26;233559;1218;140769;-60
2022/03/15 21:05:28;;;;;;;56.20;31.70;;;;;;;10.68;38.98;99583.61;233745;1219;139465;-61
2022/03/15 21:10:31;;;;;;;58.60;31.80;;;;;;;10.59;38.93;99581.38;233684;1219;140254;-61
2022/03/15 21:15:35;;;;;;;55.70;31.30;;;;;;;10.52;39.11;99584.80;233651;1219;139789;-59
2022/03/15 21:20:41;;;;;;;60.50;31.20;;;;;;;10.46;39.32;99596.98;233710;1219;138962;-60
2022/03/15 21:25:45;;;;;;;62.80;32.90;;;;;;;10.40;39.34;99598.87;233569;1220;139749;-60
2022/03/15 21:30:50;;;;;;;60.30;32.30;;;;;;;10.35;39.47;99596.50;233783;1220;139802;-60
2022/03/15 21:35:54;;;;;;;;;;;;;;;10.27;39.64;99591.75;233797;1219;139101;-60
2022/03/15 21:40:59;;;;;;;60.80;32.50;;;;;;;10.19;39.79;99588.61;233914;1219;125099;-59
2022/03/15 21:46:04;;;;;;;58.20;32.10;;;;;;;10.14;39.67;99586.36;233665;1220;139533;-61
2022/03/15 21:51:10;;;;;;;53.50;30.70;;;;;;;10.11;39.56;99583.15;233659;1219;139351;-58
2022/03/15 21:56:13;;;;;;;58.80;32.20;;;;;;;10.08;39.63;99576.74;233718;1219;139360;-61
2022/03/15 22:01:17;;;;;;;58.60;32.50;;;;;;;10.06;39.55;99565.70;233751;1219;139207;-61
2022/03/15 22:06:20;;;;;;;61.50;33.30;;;;;;;10.03;39.76;99559.80;233722;1219;139244;-62
2022/03/15 22:11:23;;;;;;;62.40;33.60;;;;;;;10.02;39.78;99557.94;233640;1218;140713;-60
2022/03/15 22:16:26;;;;;;;61.50;34.20;;;;;;;10.00;40.12;99547.36;233731;1219;139717;-60
2022/03/15 22:21:33;;;;;;;58.00;32.90;;;;;;;9.92;40.10;99528.65;233599;1219;138755;-60
2022/03/15 22:26:36;;;;;;;63.70;33.60;;;;;;;9.84;40.32;99515.79;233659;1219;138892;-60
2022/03/15 23:19:15;;;;;;;96.10;49.80;;;;;;;9.29;42.40;99440.29;233635;1218;139345;-60
2022/03/15 23:24:18;;;;;;;92.20;50.60;;;;;;;9.16;42.72;99435.25;233659;1219;139442;-61
2022/03/15 23:29:21;;;;;;;93.20;49.80;;;;;;;9.07;43.11;99435.90;233701;1218;138825;-60
2022/03/15 23:34:24;;;;;;;90.00;50.50;;;;;;;8.97;43.31;99427.38;233776;1219;229221;-60
2022/03/15 23:39:28;;;;;;;99.60;51.80;;;;;;;8.89;43.61;99420.86;233718;1219;139180;-60